sensor_id;sensor_type;location;lat;lon;timestamp;temperature;humidity
3548;DHT22;1788;49.400;11.092;2023-07-13T00:02:17;23.90;47.40
3548;DHT22;1788;49.400;11.092;2023-07-13T00:04:44;23.90;47.40
3548;DHT22;1788;49.400;11.092;2023-07-13T00:07:10;23.90;47.50
3548;DHT22;1788;49.400;11.092;2023-07-13T00:09:38;23.90;47.70
3548;DHT22;1788;49.400;11.092;2023-07-13T00:12:04;23.90;47.70
3548;DHT22;1788;49.400;11.092;2023-07-13T00:14:33;23.90;47.70
3548;DHT22;1788;49.400;11.092;2023-07-13T00:16:59;23.80;47.70
3548;DHT22;1788;49.400;11.092;2023-07-13T00:19:26;23.80;47.80
3548;DHT22;1788;49.400;11.092;2023-07-13T00:21:52;23.80;47.90
3548;DHT22;1788;49.400;11.092;2023-07-13T00:24:20;23.80;47.90
3548;DHT22;1788;49.400;11.092;2023-07-13T00:26:47;23.80;48.00
3548;DHT22;1788;49.400;11.092;2023-07-13T00:29:13;23.70;48.00
3548;DHT22;1788;49.400;11.092;2023-07-13T00:31:41;23.70;48.20
3548;DHT22;1788;49.400;11.092;2023-07-13T00:34:07;23.70;48.20
3548;DHT22;1788;49.400;11.092;2023-07-13T00:36:35;23.70;48.30
3548;DHT22;1788;49.400;11.092;2023-07-13T00:39:01;23.70;48.30
3548;DHT22;1788;49.400;11.092;2023-07-13T00:41:29;23.60;48.90
3548;DHT22;1788;49.400;11.092;2023-07-13T00:43:55;23.60;48.30
3548;DHT22;1788;49.400;11.092;2023-07-13T00:46:23;23.60;48.30
3548;DHT22;1788;49.400;11.092;2023-07-13T00:48:51;23.60;48.40
3548;DHT22;1788;49.400;11.092;2023-07-13T00:51:19;23.50;48.30
3548;DHT22;1788;49.400;11.092;2023-07-13T00:53:44;23.60;48.50
3548;DHT22;1788;49.400;11.092;2023-07-13T00:56:11;23.60;48.50
3548;DHT22;1788;49.400;11.092;2023-07-13T00:58:37;23.60;48.50
3548;DHT22;1788;49.400;11.092;2023-07-13T01:01:04;23.60;48.50
3548;DHT22;1788;49.400;11.092;2023-07-13T01:03:30;23.50;48.50
3548;DHT22;1788;49.400;11.092;2023-07-13T01:05:57;23.50;48.50
3548;DHT22;1788;49.400;11.092;2023-07-13T01:08:24;23.50;48.50
3548;DHT22;1788;49.400;11.092;2023-07-13T01:10:51;23.50;48.50
3548;DHT22;1788;49.400;11.092;2023-07-13T01:13:17;23.50;48.50
3548;DHT22;1788;49.400;11.092;2023-07-13T01:15:45;23.50;48.50
3548;DHT22;1788;49.400;11.092;2023-07-13T01:18:12;23.40;48.40
3548;DHT22;1788;49.400;11.092;2023-07-13T01:20:38;23.40;48.50
3548;DHT22;1788;49.400;11.092;2023-07-13T01:25:31;23.40;48.50
3548;DHT22;1788;49.400;11.092;2023-07-13T01:27:57;23.30;48.50
3548;DHT22;1788;49.400;11.092;2023-07-13T01:30:24;23.30;48.60
3548;DHT22;1788;49.400;11.092;2023-07-13T01:32:50;23.30;48.60
3548;DHT22;1788;49.400;11.092;2023-07-13T01:35:17;23.20;48.60
3548;DHT22;1788;49.400;11.092;2023-07-13T01:37:44;23.20;48.70
3548;DHT22;1788;49.400;11.092;2023-07-13T01:40:11;23.10;48.60
3548;DHT22;1788;49.400;11.092;2023-07-13T01:42:39;23.10;48.80
3548;DHT22;1788;49.400;11.092;2023-07-13T01:45:05;23.10;48.80
3548;DHT22;1788;49.400;11.092;2023-07-13T01:47:33;23.10;48.70
3548;DHT22;1788;49.400;11.092;2023-07-13T01:49:59;23.10;48.70
3548;DHT22;1788;49.400;11.092;2023-07-13T01:52:27;23.10;48.80
3548;DHT22;1788;49.400;11.092;2023-07-13T01:54:53;23.10;48.80
3548;DHT22;1788;49.400;11.092;2023-07-13T01:57:21;23.00;48.90
3548;DHT22;1788;49.400;11.092;2023-07-13T01:59:48;23.00;48.90
3548;DHT22;1788;49.400;11.092;2023-07-13T02:02:15;22.90;48.90
3548;DHT22;1788;49.400;11.092;2023-07-13T02:04:42;22.80;49.00
3548;DHT22;1788;49.400;11.092;2023-07-13T02:07:09;22.80;49.10
3548;DHT22;1788;49.400;11.092;2023-07-13T02:09:35;22.70;49.10
3548;DHT22;1788;49.400;11.092;2023-07-13T02:12:03;22.60;49.30
3548;DHT22;1788;49.400;11.092;2023-07-13T02:14:29;22.50;49.20
3548;DHT22;1788;49.400;11.092;2023-07-13T02:16:56;22.50;49.30
3548;DHT22;1788;49.400;11.092;2023-07-13T02:19:23;22.50;49.40
3548;DHT22;1788;49.400;11.092;2023-07-13T02:21:49;22.40;49.40
3548;DHT22;1788;49.400;11.092;2023-07-13T02:24:16;22.40;49.40
3548;DHT22;1788;49.400;11.092;2023-07-13T02:26:43;22.40;49.50
3548;DHT22;1788;49.400;11.092;2023-07-13T02:29:10;22.30;49.40
3548;DHT22;1788;49.400;11.092;2023-07-13T02:31:38;22.30;50.10
3548;DHT22;1788;49.400;11.092;2023-07-13T02:34:04;22.20;49.50
3548;DHT22;1788;49.400;11.092;2023-07-13T02:36:33;22.20;49.50
3548;DHT22;1788;49.400;11.092;2023-07-13T02:39:00;22.20;49.60
3548;DHT22;1788;49.400;11.092;2023-07-13T02:41:28;22.10;50.20
3548;DHT22;1788;49.400;11.092;2023-07-13T02:43:54;22.00;49.60
3548;DHT22;1788;49.400;11.092;2023-07-13T02:46:22;22.00;49.70
3548;DHT22;1788;49.400;11.092;2023-07-13T02:48:49;22.00;49.70
3548;DHT22;1788;49.400;11.092;2023-07-13T02:51:16;22.00;49.70
3548;DHT22;1788;49.400;11.092;2023-07-13T02:53:42;21.90;49.80
3548;DHT22;1788;49.400;11.092;2023-07-13T02:56:09;21.90;49.90
3548;DHT22;1788;49.400;11.092;2023-07-13T02:58:35;21.80;49.80
3548;DHT22;1788;49.400;11.092;2023-07-13T03:01:05;21.80;49.90
3548;DHT22;1788;49.400;11.092;2023-07-13T03:03:29;21.80;50.00
3548;DHT22;1788;49.400;11.092;2023-07-13T03:08:26;21.60;50.00
3548;DHT22;1788;49.400;11.092;2023-07-13T03:13:19;21.50;50.00
3548;DHT22;1788;49.400;11.092;2023-07-13T03:15:48;21.50;50.10
3548;DHT22;1788;49.400;11.092;2023-07-13T03:18:13;21.50;50.10
3548;DHT22;1788;49.400;11.092;2023-07-13T03:20:40;21.50;50.10
3548;DHT22;1788;49.400;11.092;2023-07-13T03:23:07;21.60;50.10
3548;DHT22;1788;49.400;11.092;2023-07-13T03:25:34;21.50;50.10
3548;DHT22;1788;49.400;11.092;2023-07-13T03:28:01;21.50;49.90
3548;DHT22;1788;49.400;11.092;2023-07-13T03:30:28;21.50;49.90
3548;DHT22;1788;49.400;11.092;2023-07-13T03:32:55;21.50;49.80
3548;DHT22;1788;49.400;11.092;2023-07-13T03:35:21;21.50;49.80
3548;DHT22;1788;49.400;11.092;2023-07-13T03:37:48;21.40;49.80
3548;DHT22;1788;49.400;11.092;2023-07-13T03:40:15;21.40;49.90
3548;DHT22;1788;49.400;11.092;2023-07-13T03:42:41;21.30;49.80
3548;DHT22;1788;49.400;11.092;2023-07-13T03:45:08;21.30;49.80
3548;DHT22;1788;49.400;11.092;2023-07-13T03:47:34;21.20;49.80
3548;DHT22;1788;49.400;11.092;2023-07-13T03:50:01;21.10;49.80
3548;DHT22;1788;49.400;11.092;2023-07-13T03:52:28;21.10;49.80
3548;DHT22;1788;49.400;11.092;2023-07-13T03:54:54;21.10;49.80
3548;DHT22;1788;49.400;11.092;2023-07-13T03:57:21;21.10;49.80
3548;DHT22;1788;49.400;11.092;2023-07-13T03:59:48;21.10;49.80
3548;DHT22;1788;49.400;11.092;2023-07-13T04:02:15;21.10;49.80
3548;DHT22;1788;49.400;11.092;2023-07-13T04:04:41;21.10;49.70
3548;DHT22;1788;49.400;11.092;2023-07-13T04:07:08;21.00;49.60
3548;DHT22;1788;49.400;11.092;2023-07-13T04:09:35;21.00;49.60
3548;DHT22;1788;49.400;11.092;2023-07-13T04:12:02;20.90;49.60
3548;DHT22;1788;49.400;11.092;2023-07-13T04:14:29;20.90;49.60
3548;DHT22;1788;49.400;11.092;2023-07-13T04:16:56;20.80;49.60
3548;DHT22;1788;49.400;11.092;2023-07-13T04:19:23;20.80;49.60
3548;DHT22;1788;49.400;11.092;2023-07-13T04:21:49;20.80;49.60
3548;DHT22;1788;49.400;11.092;2023-07-13T04:24:16;20.90;49.70
3548;DHT22;1788;49.400;11.092;2023-07-13T04:26:42;20.90;49.70
3548;DHT22;1788;49.400;11.092;2023-07-13T04:29:10;20.90;49.60
3548;DHT22;1788;49.400;11.092;2023-07-13T04:31:37;20.90;49.50
3548;DHT22;1788;49.400;11.092;2023-07-13T04:34:04;21.00;49.50
3548;DHT22;1788;49.400;11.092;2023-07-13T04:36:31;21.00;49.40
3548;DHT22;1788;49.400;11.092;2023-07-13T04:38:58;20.90;49.40
3548;DHT22;1788;49.400;11.092;2023-07-13T04:41:24;21.00;49.40
3548;DHT22;1788;49.400;11.092;2023-07-13T04:43:51;21.00;49.30
3548;DHT22;1788;49.400;11.092;2023-07-13T04:46:18;20.90;49.30
3548;DHT22;1788;49.400;11.092;2023-07-13T04:48:48;20.90;49.40
3548;DHT22;1788;49.400;11.092;2023-07-13T04:51:14;20.90;49.40
3548;DHT22;1788;49.400;11.092;2023-07-13T04:53:41;20.90;50.00
3548;DHT22;1788;49.400;11.092;2023-07-13T04:56:08;20.80;49.40
3548;DHT22;1788;49.400;11.092;2023-07-13T04:58:35;20.80;49.40
3548;DHT22;1788;49.400;11.092;2023-07-13T05:01:02;20.70;49.40
3548;DHT22;1788;49.400;11.092;2023-07-13T05:03:28;20.70;49.50
3548;DHT22;1788;49.400;11.092;2023-07-13T05:08:22;20.70;49.60
3548;DHT22;1788;49.400;11.092;2023-07-13T05:10:49;20.70;49.60
3548;DHT22;1788;49.400;11.092;2023-07-13T05:13:16;20.70;50.00
3548;DHT22;1788;49.400;11.092;2023-07-13T05:15:43;20.70;49.50
3548;DHT22;1788;49.400;11.092;2023-07-13T05:18:10;20.80;49.80
3548;DHT22;1788;49.400;11.092;2023-07-13T05:20:37;20.70;49.40
3548;DHT22;1788;49.400;11.092;2023-07-13T05:23:04;20.80;49.40
3548;DHT22;1788;49.400;11.092;2023-07-13T05:25:31;20.90;49.30
3548;DHT22;1788;49.400;11.092;2023-07-13T05:27:58;20.90;49.30
3548;DHT22;1788;49.400;11.092;2023-07-13T05:30:24;20.90;49.20
3548;DHT22;1788;49.400;11.092;2023-07-13T05:32:51;20.90;49.20
3548;DHT22;1788;49.400;11.092;2023-07-13T05:35:18;21.00;49.20
3548;DHT22;1788;49.400;11.092;2023-07-13T05:37:45;21.20;49.10
3548;DHT22;1788;49.400;11.092;2023-07-13T05:40:12;21.20;49.10
3548;DHT22;1788;49.400;11.092;2023-07-13T05:42:39;21.40;49.00
3548;DHT22;1788;49.400;11.092;2023-07-13T05:45:06;21.40;48.90
3548;DHT22;1788;49.400;11.092;2023-07-13T05:47:33;21.70;48.90
3548;DHT22;1788;49.400;11.092;2023-07-13T05:50:00;21.70;48.70
3548;DHT22;1788;49.400;11.092;2023-07-13T05:52:26;21.70;48.40
3548;DHT22;1788;49.400;11.092;2023-07-13T05:54:53;21.70;48.30
3548;DHT22;1788;49.400;11.092;2023-07-13T05:57:20;21.70;48.20
3548;DHT22;1788;49.400;11.092;2023-07-13T05:59:46;21.70;48.20
3548;DHT22;1788;49.400;11.092;2023-07-13T06:02:14;21.70;48.10
3548;DHT22;1788;49.400;11.092;2023-07-13T06:04:40;21.70;48.10
3548;DHT22;1788;49.400;11.092;2023-07-13T06:07:08;21.80;48.10
3548;DHT22;1788;49.400;11.092;2023-07-13T06:09:34;21.80;48.10
3548;DHT22;1788;49.400;11.092;2023-07-13T06:12:02;21.90;48.30
3548;DHT22;1788;49.400;11.092;2023-07-13T06:14:28;21.90;48.10
3548;DHT22;1788;49.400;11.092;2023-07-13T06:16:55;22.00;48.00
3548;DHT22;1788;49.400;11.092;2023-07-13T06:19:22;22.00;47.90
3548;DHT22;1788;49.400;11.092;2023-07-13T06:21:48;22.00;47.80
3548;DHT22;1788;49.400;11.092;2023-07-13T06:24:15;22.00;47.70
3548;DHT22;1788;49.400;11.092;2023-07-13T06:26:41;22.10;47.80
3548;DHT22;1788;49.400;11.092;2023-07-13T06:29:08;22.10;47.70
3548;DHT22;1788;49.400;11.092;2023-07-13T06:31:35;22.20;47.70
3548;DHT22;1788;49.400;11.092;2023-07-13T06:34:01;22.30;47.60
3548;DHT22;1788;49.400;11.092;2023-07-13T06:36:28;22.40;47.10
3548;DHT22;1788;49.400;11.092;2023-07-13T06:38:54;22.50;47.30
3548;DHT22;1788;49.400;11.092;2023-07-13T06:41:21;22.60;47.20
3548;DHT22;1788;49.400;11.092;2023-07-13T06:43:48;22.70;47.20
3548;DHT22;1788;49.400;11.092;2023-07-13T06:46:14;22.80;47.00
3548;DHT22;1788;49.400;11.092;2023-07-13T06:48:41;22.90;46.90
3548;DHT22;1788;49.400;11.092;2023-07-13T06:51:08;23.00;46.60
3548;DHT22;1788;49.400;11.092;2023-07-13T06:53:36;23.00;46.60
3548;DHT22;1788;49.400;11.092;2023-07-13T06:56:02;23.00;46.40
3548;DHT22;1788;49.400;11.092;2023-07-13T06:58:30;23.00;46.40
3548;DHT22;1788;49.400;11.092;2023-07-13T07:00:56;22.90;46.40
3548;DHT22;1788;49.400;11.092;2023-07-13T07:03:23;23.00;46.50
3548;DHT22;1788;49.400;11.092;2023-07-13T07:05:50;23.10;46.60
3548;DHT22;1788;49.400;11.092;2023-07-13T07:08:16;23.10;46.50
3548;DHT22;1788;49.400;11.092;2023-07-13T07:10:43;23.20;46.50
3548;DHT22;1788;49.400;11.092;2023-07-13T07:13:09;23.30;46.40
3548;DHT22;1788;49.400;11.092;2023-07-13T07:15:36;23.40;46.30
3548;DHT22;1788;49.400;11.092;2023-07-13T07:18:03;23.40;46.10
3548;DHT22;1788;49.400;11.092;2023-07-13T07:20:30;23.60;46.10
3548;DHT22;1788;49.400;11.092;2023-07-13T07:22:57;23.60;46.00
3548;DHT22;1788;49.400;11.092;2023-07-13T07:25:23;23.70;45.90
3548;DHT22;1788;49.400;11.092;2023-07-13T07:27:50;23.90;45.80
3548;DHT22;1788;49.400;11.092;2023-07-13T07:30:16;24.00;45.60
3548;DHT22;1788;49.400;11.092;2023-07-13T07:32:44;24.40;45.20
3548;DHT22;1788;49.400;11.092;2023-07-13T07:35:10;24.40;45.10
3548;DHT22;1788;49.400;11.092;2023-07-13T07:37:37;24.50;45.00
3548;DHT22;1788;49.400;11.092;2023-07-13T07:40:04;24.70;44.90
3548;DHT22;1788;49.400;11.092;2023-07-13T07:42:30;24.90;44.70
3548;DHT22;1788;49.400;11.092;2023-07-13T07:44:57;25.00;44.40
3548;DHT22;1788;49.400;11.092;2023-07-13T07:47:23;25.00;44.20
3548;DHT22;1788;49.400;11.092;2023-07-13T07:49:50;25.00;44.10
3548;DHT22;1788;49.400;11.092;2023-07-13T07:52:17;25.00;44.10
3548;DHT22;1788;49.400;11.092;2023-07-13T07:54:43;25.00;44.10
3548;DHT22;1788;49.400;11.092;2023-07-13T07:57:10;24.90;44.00
3548;DHT22;1788;49.400;11.092;2023-07-13T07:59:37;24.90;43.90
3548;DHT22;1788;49.400;11.092;2023-07-13T08:02:03;24.90;43.90
3548;DHT22;1788;49.400;11.092;2023-07-13T08:04:30;24.90;43.90
3548;DHT22;1788;49.400;11.092;2023-07-13T08:06:57;24.90;43.90
3548;DHT22;1788;49.400;11.092;2023-07-13T08:09:24;24.90;43.50
3548;DHT22;1788;49.400;11.092;2023-07-13T08:11:52;24.90;43.50
3548;DHT22;1788;49.400;11.092;2023-07-13T08:14:18;25.00;43.60
3548;DHT22;1788;49.400;11.092;2023-07-13T08:16:45;25.10;43.60
3548;DHT22;1788;49.400;11.092;2023-07-13T08:19:12;25.30;43.40
3548;DHT22;1788;49.400;11.092;2023-07-13T08:21:38;25.30;43.10
3548;DHT22;1788;49.400;11.092;2023-07-13T08:24:05;25.40;42.70
3548;DHT22;1788;49.400;11.092;2023-07-13T08:26:32;25.40;42.70
3548;DHT22;1788;49.400;11.092;2023-07-13T08:28:59;25.40;42.60
3548;DHT22;1788;49.400;11.092;2023-07-13T08:31:25;25.50;42.40
3548;DHT22;1788;49.400;11.092;2023-07-13T08:33:52;25.70;42.20
3548;DHT22;1788;49.400;11.092;2023-07-13T08:36:19;25.80;41.80
3548;DHT22;1788;49.400;11.092;2023-07-13T08:38:45;25.80;41.50
3548;DHT22;1788;49.400;11.092;2023-07-13T08:41:13;25.90;41.30
3548;DHT22;1788;49.400;11.092;2023-07-13T08:43:38;26.00;41.00
3548;DHT22;1788;49.400;11.092;2023-07-13T08:48:34;26.10;40.00
3548;DHT22;1788;49.400;11.092;2023-07-13T08:51:02;26.20;39.10
3548;DHT22;1788;49.400;11.092;2023-07-13T08:53:30;26.20;39.10
3548;DHT22;1788;49.400;11.092;2023-07-13T08:55:57;26.20;38.80
3548;DHT22;1788;49.400;11.092;2023-07-13T08:58:22;26.30;38.60
3548;DHT22;1788;49.400;11.092;2023-07-13T09:00:52;26.40;38.30
3548;DHT22;1788;49.400;11.092;2023-07-13T09:05:42;26.60;37.50
3548;DHT22;1788;49.400;11.092;2023-07-13T09:15:30;27.00;37.00
3548;DHT22;1788;49.400;11.092;2023-07-13T09:17:56;27.00;36.70
3548;DHT22;1788;49.400;11.092;2023-07-13T09:22:49;27.00;36.40
3548;DHT22;1788;49.400;11.092;2023-07-13T09:27:43;27.00;36.10
3548;DHT22;1788;49.400;11.092;2023-07-13T09:32:36;27.20;35.80
3548;DHT22;1788;49.400;11.092;2023-07-13T09:35:05;27.40;35.80
3548;DHT22;1788;49.400;11.092;2023-07-13T09:37:31;27.60;35.90
3548;DHT22;1788;49.400;11.092;2023-07-13T09:39:57;27.60;35.30
3548;DHT22;1788;49.400;11.092;2023-07-13T09:42:23;27.70;35.20
3548;DHT22;1788;49.400;11.092;2023-07-13T09:44:52;27.90;35.10
3548;DHT22;1788;49.400;11.092;2023-07-13T09:47:18;28.10;35.00
3548;DHT22;1788;49.400;11.092;2023-07-13T09:49:44;28.20;34.50
3548;DHT22;1788;49.400;11.092;2023-07-13T09:52:12;28.20;34.40
3548;DHT22;1788;49.400;11.092;2023-07-13T09:54:38;28.10;34.10
3548;DHT22;1788;49.400;11.092;2023-07-13T10:02:00;28.00;33.60
3548;DHT22;1788;49.400;11.092;2023-07-13T10:04:29;28.00;33.60
3548;DHT22;1788;49.400;11.092;2023-07-13T10:07:04;28.20;33.30
3548;DHT22;1788;49.400;11.092;2023-07-13T10:09:21;28.20;33.20
3548;DHT22;1788;49.400;11.092;2023-07-13T10:11:49;28.30;33.00
3548;DHT22;1788;49.400;11.092;2023-07-13T10:14:17;28.40;32.90
3548;DHT22;1788;49.400;11.092;2023-07-13T10:16:43;28.50;32.90
3548;DHT22;1788;49.400;11.092;2023-07-13T10:19:11;28.60;32.70
3548;DHT22;1788;49.400;11.092;2023-07-13T10:21:36;28.60;32.50
3548;DHT22;1788;49.400;11.092;2023-07-13T10:26:31;28.80;32.20
3548;DHT22;1788;49.400;11.092;2023-07-13T10:28:59;29.10;32.00
3548;DHT22;1788;49.400;11.092;2023-07-13T10:31:24;29.10;32.50
3548;DHT22;1788;49.400;11.092;2023-07-13T10:33:51;29.20;31.60
3548;DHT22;1788;49.400;11.092;2023-07-13T10:38:46;29.20;31.50
3548;DHT22;1788;49.400;11.092;2023-07-13T10:46:10;29.60;31.10
3548;DHT22;1788;49.400;11.092;2023-07-13T10:48:34;29.60;31.00
3548;DHT22;1788;49.400;11.092;2023-07-13T10:51:01;29.70;31.00
3548;DHT22;1788;49.400;11.092;2023-07-13T10:53:29;29.80;30.90
3548;DHT22;1788;49.400;11.092;2023-07-13T10:55:58;29.90;30.80
3548;DHT22;1788;49.400;11.092;2023-07-13T10:58:28;29.80;30.30
3548;DHT22;1788;49.400;11.092;2023-07-13T11:01:03;29.80;30.30
3548;DHT22;1788;49.400;11.092;2023-07-13T11:03:19;29.40;30.00
3548;DHT22;1788;49.400;11.092;2023-07-13T11:05:47;29.40;30.00
3548;DHT22;1788;49.400;11.092;2023-07-13T11:08:15;29.20;30.00
3548;DHT22;1788;49.400;11.092;2023-07-13T11:13:29;29.00;30.40
3548;DHT22;1788;49.400;11.092;2023-07-13T11:15:42;29.10;30.30
3548;DHT22;1788;49.400;11.092;2023-07-13T11:25:21;28.90;30.20
3548;DHT22;1788;49.400;11.092;2023-07-13T11:27:50;28.70;30.00
3548;DHT22;1788;49.400;11.092;2023-07-13T11:32:39;28.40;30.20
3548;DHT22;1788;49.400;11.092;2023-07-13T11:35:09;28.20;30.10
3548;DHT22;1788;49.400;11.092;2023-07-13T11:37:33;28.10;30.20
3548;DHT22;1788;49.400;11.092;2023-07-13T11:39:59;28.10;30.40
3548;DHT22;1788;49.400;11.092;2023-07-13T11:42:26;28.30;30.40
3548;DHT22;1788;49.400;11.092;2023-07-13T11:44:53;28.70;30.40
3548;DHT22;1788;49.400;11.092;2023-07-13T11:47:21;28.70;30.40
3548;DHT22;1788;49.400;11.092;2023-07-13T11:52:14;29.30;30.20
3548;DHT22;1788;49.400;11.092;2023-07-13T11:59:36;30.10;29.70
3548;DHT22;1788;49.400;11.092;2023-07-13T12:02:01;30.20;29.50
3548;DHT22;1788;49.400;11.092;2023-07-13T12:04:29;30.10;29.40
3548;DHT22;1788;49.400;11.092;2023-07-13T12:06:56;30.00;29.30
3548;DHT22;1788;49.400;11.092;2023-07-13T12:09:22;29.90;29.40
3548;DHT22;1788;49.400;11.092;2023-07-13T12:11:49;29.90;29.40
3548;DHT22;1788;49.400;11.092;2023-07-13T12:14:16;29.80;29.50
3548;DHT22;1788;49.400;11.092;2023-07-13T12:16:43;29.80;29.50
3548;DHT22;1788;49.400;11.092;2023-07-13T12:19:18;29.60;29.60
3548;DHT22;1788;49.400;11.092;2023-07-13T12:21:38;29.60;29.60
3548;DHT22;1788;49.400;11.092;2023-07-13T12:24:04;29.30;29.80
3548;DHT22;1788;49.400;11.092;2023-07-13T12:26:31;29.30;29.70
3548;DHT22;1788;49.400;11.092;2023-07-13T12:28:59;29.10;29.70
3548;DHT22;1788;49.400;11.092;2023-07-13T12:36:18;28.80;30.10
3548;DHT22;1788;49.400;11.092;2023-07-13T12:38:45;28.80;30.00
3548;DHT22;1788;49.400;11.092;2023-07-13T12:41:11;28.90;30.30
3548;DHT22;1788;49.400;11.092;2023-07-13T12:43:38;29.00;30.20
3548;DHT22;1788;49.400;11.092;2023-07-13T12:46:05;29.10;30.90
3548;DHT22;1788;49.400;11.092;2023-07-13T12:48:37;29.30;30.40
3548;DHT22;1788;49.400;11.092;2023-07-13T12:51:00;29.60;30.30
3548;DHT22;1788;49.400;11.092;2023-07-13T13:03:18;29.80;29.70
3548;DHT22;1788;49.400;11.092;2023-07-13T13:05:40;29.90;29.60
3548;DHT22;1788;49.400;11.092;2023-07-13T13:08:09;29.80;29.60
3548;DHT22;1788;49.400;11.092;2023-07-13T13:10:34;29.80;29.60
3548;DHT22;1788;49.400;11.092;2023-07-13T13:13:01;29.80;29.60
3548;DHT22;1788;49.400;11.092;2023-07-13T13:15:28;29.80;29.70
3548;DHT22;1788;49.400;11.092;2023-07-13T13:17:55;29.70;29.80
3548;DHT22;1788;49.400;11.092;2023-07-13T13:20:22;29.70;29.90
3548;DHT22;1788;49.400;11.092;2023-07-13T13:22:48;29.90;29.90
3548;DHT22;1788;49.400;11.092;2023-07-13T13:25:15;30.20;29.80
3548;DHT22;1788;49.400;11.092;2023-07-13T13:27:42;30.20;29.70
3548;DHT22;1788;49.400;11.092;2023-07-13T13:30:12;30.30;29.80
3548;DHT22;1788;49.400;11.092;2023-07-13T13:32:35;30.30;29.70
3548;DHT22;1788;49.400;11.092;2023-07-13T13:35:02;30.20;29.60
3548;DHT22;1788;49.400;11.092;2023-07-13T13:37:29;30.20;29.60
3548;DHT22;1788;49.400;11.092;2023-07-13T13:39:56;30.20;29.70
3548;DHT22;1788;49.400;11.092;2023-07-13T13:42:23;30.20;29.80
3548;DHT22;1788;49.400;11.092;2023-07-13T13:44:49;30.20;29.80
3548;DHT22;1788;49.400;11.092;2023-07-13T13:49:43;30.40;29.80
3548;DHT22;1788;49.400;11.092;2023-07-13T13:52:11;30.50;29.60
3548;DHT22;1788;49.400;11.092;2023-07-13T13:54:37;30.50;29.60
3548;DHT22;1788;49.400;11.092;2023-07-13T13:57:04;30.50;29.50
3548;DHT22;1788;49.400;11.092;2023-07-13T13:59:31;30.50;29.50
3548;DHT22;1788;49.400;11.092;2023-07-13T14:01:57;30.30;29.40
3548;DHT22;1788;49.400;11.092;2023-07-13T14:04:24;30.20;29.30
3548;DHT22;1788;49.400;11.092;2023-07-13T14:06:51;30.00;29.30
3548;DHT22;1788;49.400;11.092;2023-07-13T14:09:18;29.80;29.30
3548;DHT22;1788;49.400;11.092;2023-07-13T14:11:46;29.70;29.50
3548;DHT22;1788;49.400;11.092;2023-07-13T14:14:14;29.60;29.70
3548;DHT22;1788;49.400;11.092;2023-07-13T14:16:39;29.40;29.60
3548;DHT22;1788;49.400;11.092;2023-07-13T14:19:05;29.30;29.70
3548;DHT22;1788;49.400;11.092;2023-07-13T14:21:32;29.30;29.90
3548;DHT22;1788;49.400;11.092;2023-07-13T14:23:59;29.40;30.00
3548;DHT22;1788;49.400;11.092;2023-07-13T14:26:26;29.50;30.10
3548;DHT22;1788;49.400;11.092;2023-07-13T14:31:20;29.50;30.00
3548;DHT22;1788;49.400;11.092;2023-07-13T14:33:46;29.60;30.00
3548;DHT22;1788;49.400;11.092;2023-07-13T14:38:40;29.50;29.80
3548;DHT22;1788;49.400;11.092;2023-07-13T14:41:08;29.40;30.30
3548;DHT22;1788;49.400;11.092;2023-07-13T14:43:34;29.30;30.00
3548;DHT22;1788;49.400;11.092;2023-07-13T14:46:03;29.50;30.80
3548;DHT22;1788;49.400;11.092;2023-07-13T14:48:29;29.40;30.00
3548;DHT22;1788;49.400;11.092;2023-07-13T14:50:57;29.50;30.00
3548;DHT22;1788;49.400;11.092;2023-07-13T14:53:24;29.50;29.90
3548;DHT22;1788;49.400;11.092;2023-07-13T14:55:51;29.30;29.80
3548;DHT22;1788;49.400;11.092;2023-07-13T14:58:19;29.10;29.80
3548;DHT22;1788;49.400;11.092;2023-07-13T15:00:45;29.00;29.80
3548;DHT22;1788;49.400;11.092;2023-07-13T15:05:38;28.90;29.80
3548;DHT22;1788;49.400;11.092;2023-07-13T15:08:05;28.80;29.80
3548;DHT22;1788;49.400;11.092;2023-07-13T15:10:32;28.80;29.70
3548;DHT22;1788;49.400;11.092;2023-07-13T15:12:59;28.80;29.80
3548;DHT22;1788;49.400;11.092;2023-07-13T15:15:27;29.00;29.80
3548;DHT22;1788;49.400;11.092;2023-07-13T15:17:52;29.00;29.80
3548;DHT22;1788;49.400;11.092;2023-07-13T15:20:26;29.20;29.90
3548;DHT22;1788;49.400;11.092;2023-07-13T15:22:46;29.20;29.80
3548;DHT22;1788;49.400;11.092;2023-07-13T15:25:15;29.20;29.60
3548;DHT22;1788;49.400;11.092;2023-07-13T15:27:39;29.10;29.50
3548;DHT22;1788;49.400;11.092;2023-07-13T15:30:06;29.10;29.40
3548;DHT22;1788;49.400;11.092;2023-07-13T15:32:33;29.00;29.30
3548;DHT22;1788;49.400;11.092;2023-07-13T15:34:59;28.90;29.30
3548;DHT22;1788;49.400;11.092;2023-07-13T15:37:26;28.90;29.30
3548;DHT22;1788;49.400;11.092;2023-07-13T15:39:53;28.80;29.20
3548;DHT22;1788;49.400;11.092;2023-07-13T15:42:20;28.60;29.10
3548;DHT22;1788;49.400;11.092;2023-07-13T15:44:47;28.60;29.40
3548;DHT22;1788;49.400;11.092;2023-07-13T15:47:14;28.60;29.40
3548;DHT22;1788;49.400;11.092;2023-07-13T15:49:40;28.60;29.40
3548;DHT22;1788;49.400;11.092;2023-07-13T15:52:11;28.60;29.50
3548;DHT22;1788;49.400;11.092;2023-07-13T15:54:34;28.70;29.60
3548;DHT22;1788;49.400;11.092;2023-07-13T15:57:01;28.80;29.50
3548;DHT22;1788;49.400;11.092;2023-07-13T15:59:28;29.00;29.60
3548;DHT22;1788;49.400;11.092;2023-07-13T16:01:54;29.10;29.50
3548;DHT22;1788;49.400;11.092;2023-07-13T16:04:21;29.20;29.60
3548;DHT22;1788;49.400;11.092;2023-07-13T16:06:47;29.30;29.60
3548;DHT22;1788;49.400;11.092;2023-07-13T16:11:41;29.20;29.40
3548;DHT22;1788;49.400;11.092;2023-07-13T16:14:10;29.10;29.50
3548;DHT22;1788;49.400;11.092;2023-07-13T16:16:35;29.10;29.50
3548;DHT22;1788;49.400;11.092;2023-07-13T16:19:03;29.00;29.40
3548;DHT22;1788;49.400;11.092;2023-07-13T16:21:30;28.80;29.40
3548;DHT22;1788;49.400;11.092;2023-07-13T16:23:55;28.70;29.60
3548;DHT22;1788;49.400;11.092;2023-07-13T16:26:25;28.50;29.70
3548;DHT22;1788;49.400;11.092;2023-07-13T16:28:49;28.40;29.90
3548;DHT22;1788;49.400;11.092;2023-07-13T16:31:16;28.20;30.00
3548;DHT22;1788;49.400;11.092;2023-07-13T16:33:43;28.10;30.00
3548;DHT22;1788;49.400;11.092;2023-07-13T16:36:10;28.00;30.40
3548;DHT22;1788;49.400;11.092;2023-07-13T16:38:37;28.00;30.40
3548;DHT22;1788;49.400;11.092;2023-07-13T16:41:04;28.00;30.50
3548;DHT22;1788;49.400;11.092;2023-07-13T16:43:31;28.00;30.50
3548;DHT22;1788;49.400;11.092;2023-07-13T16:45:58;28.10;30.70
3548;DHT22;1788;49.400;11.092;2023-07-13T16:48:24;28.10;30.70
3548;DHT22;1788;49.400;11.092;2023-07-13T16:50:52;28.10;30.60
3548;DHT22;1788;49.400;11.092;2023-07-13T16:53:19;28.10;30.60
3548;DHT22;1788;49.400;11.092;2023-07-13T16:55:45;28.00;30.70
3548;DHT22;1788;49.400;11.092;2023-07-13T16:58:12;28.00;30.90
3548;DHT22;1788;49.400;11.092;2023-07-13T17:00:38;28.00;30.90
3548;DHT22;1788;49.400;11.092;2023-07-13T17:03:05;28.00;30.90
3548;DHT22;1788;49.400;11.092;2023-07-13T17:05:34;27.90;30.90
3548;DHT22;1788;49.400;11.092;2023-07-13T17:07:59;27.80;30.90
3548;DHT22;1788;49.400;11.092;2023-07-13T17:10:26;27.70;31.00
3548;DHT22;1788;49.400;11.092;2023-07-13T17:12:55;27.60;31.10